sensor_id;sensor_type;location;lat;lon;timestamp;P1;durP1;ratioP1;P2;durP2;ratioP2
45694;SDS011;31408;45.468;9.124;2022-08-03T00:01:19;6.85;;;2.35;;
45694;SDS011;31408;45.468;9.124;2022-08-03T00:03:45;4.15;;;2.25;;
45694;SDS011;31408;45.468;9.124;2022-08-03T00:06:10;7.93;;;2.08;;
45694;SDS011;31408;45.468;9.124;2022-08-03T00:08:36;5.97;;;2.00;;
45694;SDS011;31408;45.468;9.124;2022-08-03T00:11:01;7.63;;;1.45;;
45694;SDS011;31408;45.468;9.124;2022-08-03T00:13:27;7.45;;;1.98;;
45694;SDS011;31408;45.468;9.124;2022-08-03T00:15:53;4.82;;;2.17;;
45694;SDS011;31408;45.468;9.124;2022-08-03T00:18:18;1.83;;;1.55;;
45694;SDS011;31408;45.468;9.124;2022-08-03T00:20:44;7.30;;;1.77;;
45694;SDS011;31408;45.468;9.124;2022-08-03T00:23:10;4.32;;;1.42;;
45694;SDS011;31408;45.468;9.124;2022-08-03T00:25:35;5.68;;;1.65;;
45694;SDS011;31408;45.468;9.124;2022-08-03T00:28:01;2.17;;;1.55;;
45694;SDS011;31408;45.468;9.124;2022-08-03T00:30:28;4.53;;;1.30;;
45694;SDS011;31408;45.468;9.124;2022-08-03T00:32:53;3.53;;;1.30;;
45694;SDS011;31408;45.468;9.124;2022-08-03T00:35:19;3.63;;;1.77;;
45694;SDS011;31408;45.468;9.124;2022-08-03T00:37:44;5.72;;;1.60;;
45694;SDS011;31408;45.468;9.124;2022-08-03T00:40:11;8.88;;;1.70;;
45694;SDS011;31408;45.468;9.124;2022-08-03T00:42:53;2.88;;;1.70;;
45694;SDS011;31408;45.468;9.124;2022-08-03T00:45:21;2.17;;;1.42;;
45694;SDS011;31408;45.468;9.124;2022-08-03T00:47:48;5.25;;;1.90;;
45694;SDS011;31408;45.468;9.124;2022-08-03T00:50:14;3.13;;;1.95;;
45694;SDS011;31408;45.468;9.124;2022-08-03T00:52:40;3.55;;;1.70;;
45694;SDS011;31408;45.468;9.124;2022-08-03T00:55:06;3.03;;;1.65;;
45694;SDS011;31408;45.468;9.124;2022-08-03T00:57:32;1.60;;;1.40;;
45694;SDS011;31408;45.468;9.124;2022-08-03T00:59:57;2.38;;;1.30;;
45694;SDS011;31408;45.468;9.124;2022-08-03T01:02:27;3.10;;;1.63;;
45694;SDS011;31408;45.468;9.124;2022-08-03T01:04:53;2.58;;;1.50;;
45694;SDS011;31408;45.468;9.124;2022-08-03T01:10:13;6.30;;;1.70;;
45694;SDS011;31408;45.468;9.124;2022-08-03T01:13:04;3.90;;;2.00;;
45694;SDS011;31408;45.468;9.124;2022-08-03T01:16:30;4.65;;;1.92;;
45694;SDS011;31408;45.468;9.124;2022-08-03T01:18:42;4.70;;;2.00;;
45694;SDS011;31408;45.468;9.124;2022-08-03T01:21:17;5.18;;;1.90;;
45694;SDS011;31408;45.468;9.124;2022-08-03T01:23:55;2.13;;;1.77;;
45694;SDS011;31408;45.468;9.124;2022-08-03T01:26:52;7.80;;;2.20;;
45694;SDS011;31408;45.468;9.124;2022-08-03T01:32:04;2.50;;;1.73;;
45694;SDS011;31408;45.468;9.124;2022-08-03T01:34:34;4.70;;;2.08;;
45694;SDS011;31408;45.468;9.124;2022-08-03T01:37:04;12.57;;;2.25;;
45694;SDS011;31408;45.468;9.124;2022-08-03T01:39:30;3.50;;;2.03;;
45694;SDS011;31408;45.468;9.124;2022-08-03T01:42:08;1.70;;;1.45;;
45694;SDS011;31408;45.468;9.124;2022-08-03T01:44:36;4.45;;;1.95;;
45694;SDS011;31408;45.468;9.124;2022-08-03T01:47:03;2.85;;;1.88;;
45694;SDS011;31408;45.468;9.124;2022-08-03T01:49:30;5.57;;;1.70;;
45694;SDS011;31408;45.468;9.124;2022-08-03T01:51:58;3.95;;;2.40;;
45694;SDS011;31408;45.468;9.124;2022-08-03T01:54:25;4.63;;;1.77;;
45694;SDS011;31408;45.468;9.124;2022-08-03T01:56:51;5.15;;;1.80;;
45694;SDS011;31408;45.468;9.124;2022-08-03T01:59:18;2.85;;;1.65;;
45694;SDS011;31408;45.468;9.124;2022-08-03T02:01:44;5.38;;;1.83;;
45694;SDS011;31408;45.468;9.124;2022-08-03T02:04:10;5.70;;;2.13;;
45694;SDS011;31408;45.468;9.124;2022-08-03T02:06:37;4.00;;;2.30;;
45694;SDS011;31408;45.468;9.124;2022-08-03T02:09:03;5.50;;;2.65;;
45694;SDS011;31408;45.468;9.124;2022-08-03T02:11:30;4.57;;;1.98;;
45694;SDS011;31408;45.468;9.124;2022-08-03T02:13:57;3.28;;;1.80;;
45694;SDS011;31408;45.468;9.124;2022-08-03T02:16:25;6.57;;;1.95;;
45694;SDS011;31408;45.468;9.124;2022-08-03T02:18:50;2.85;;;2.17;;
45694;SDS011;31408;45.468;9.124;2022-08-03T02:21:16;3.38;;;2.17;;
45694;SDS011;31408;45.468;9.124;2022-08-03T02:23:42;2.78;;;1.90;;
45694;SDS011;31408;45.468;9.124;2022-08-03T02:26:08;5.38;;;1.95;;
45694;SDS011;31408;45.468;9.124;2022-08-03T02:28:37;4.93;;;2.20;;
45694;SDS011;31408;45.468;9.124;2022-08-03T02:31:14;2.83;;;1.70;;
45694;SDS011;31408;45.468;9.124;2022-08-03T02:33:46;3.17;;;2.25;;
45694;SDS011;31408;45.468;9.124;2022-08-03T02:36:13;2.35;;;1.77;;
45694;SDS011;31408;45.468;9.124;2022-08-03T02:38:41;6.43;;;1.58;;
45694;SDS011;31408;45.468;9.124;2022-08-03T02:41:12;5.80;;;2.17;;
45694;SDS011;31408;45.468;9.124;2022-08-03T02:43:42;2.13;;;1.63;;
45694;SDS011;31408;45.468;9.124;2022-08-03T02:46:09;4.57;;;2.38;;
45694;SDS011;31408;45.468;9.124;2022-08-03T02:48:37;4.50;;;1.73;;
45694;SDS011;31408;45.468;9.124;2022-08-03T02:51:05;3.85;;;1.88;;
45694;SDS011;31408;45.468;9.124;2022-08-03T02:53:31;9.50;;;2.05;;
45694;SDS011;31408;45.468;9.124;2022-08-03T02:55:57;7.32;;;2.50;;
45694;SDS011;31408;45.468;9.124;2022-08-03T02:58:24;4.88;;;2.13;;
45694;SDS011;31408;45.468;9.124;2022-08-03T03:00:50;4.97;;;1.77;;
45694;SDS011;31408;45.468;9.124;2022-08-03T03:03:16;5.15;;;1.83;;
45694;SDS011;31408;45.468;9.124;2022-08-03T03:05:42;5.20;;;1.80;;
45694;SDS011;31408;45.468;9.124;2022-08-03T03:08:08;3.00;;;2.00;;
45694;SDS011;31408;45.468;9.124;2022-08-03T03:10:37;7.38;;;2.13;;
45694;SDS011;31408;45.468;9.124;2022-08-03T03:13:03;3.85;;;1.92;;
45694;SDS011;31408;45.468;9.124;2022-08-03T03:15:28;1.77;;;1.67;;
45694;SDS011;31408;45.468;9.124;2022-08-03T03:17:55;4.38;;;2.20;;
45694;SDS011;31408;45.468;9.124;2022-08-03T03:20:21;3.78;;;2.38;;
45694;SDS011;31408;45.468;9.124;2022-08-03T03:22:48;4.97;;;1.73;;
45694;SDS011;31408;45.468;9.124;2022-08-03T03:25:13;3.40;;;2.13;;
45694;SDS011;31408;45.468;9.124;2022-08-03T03:27:39;3.72;;;1.92;;
45694;SDS011;31408;45.468;9.124;2022-08-03T03:30:05;3.13;;;1.85;;
45694;SDS011;31408;45.468;9.124;2022-08-03T03:32:31;3.35;;;2.20;;
45694;SDS011;31408;45.468;9.124;2022-08-03T03:34:58;8.98;;;2.40;;
45694;SDS011;31408;45.468;9.124;2022-08-03T03:37:25;5.82;;;2.58;;
45694;SDS011;31408;45.468;9.124;2022-08-03T03:39:54;7.18;;;2.50;;
45694;SDS011;31408;45.468;9.124;2022-08-03T03:42:19;4.82;;;2.40;;
45694;SDS011;31408;45.468;9.124;2022-08-03T03:44:45;2.55;;;2.35;;
45694;SDS011;31408;45.468;9.124;2022-08-03T03:47:11;2.22;;;1.85;;
45694;SDS011;31408;45.468;9.124;2022-08-03T03:49:37;5.47;;;2.00;;
45694;SDS011;31408;45.468;9.124;2022-08-03T03:52:03;7.88;;;2.30;;
45694;SDS011;31408;45.468;9.124;2022-08-03T03:54:39;3.88;;;2.03;;
45694;SDS011;31408;45.468;9.124;2022-08-03T03:57:05;5.97;;;2.05;;
45694;SDS011;31408;45.468;9.124;2022-08-03T03:59:30;3.13;;;2.22;;
45694;SDS011;31408;45.468;9.124;2022-08-03T04:01:57;3.13;;;1.85;;
45694;SDS011;31408;45.468;9.124;2022-08-03T04:04:22;4.72;;;2.22;;
45694;SDS011;31408;45.468;9.124;2022-08-03T04:07:06;3.17;;;2.20;;
45694;SDS011;31408;45.468;9.124;2022-08-03T04:09:50;5.90;;;2.15;;
45694;SDS011;31408;45.468;9.124;2022-08-03T04:12:35;4.22;;;2.35;;
45694;SDS011;31408;45.468;9.124;2022-08-03T04:15:02;2.70;;;2.13;;
45694;SDS011;31408;45.468;9.124;2022-08-03T04:17:28;5.45;;;2.55;;
45694;SDS011;31408;45.468;9.124;2022-08-03T04:19:55;6.25;;;2.45;;
45694;SDS011;31408;45.468;9.124;2022-08-03T04:22:23;3.67;;;2.15;;
45694;SDS011;31408;45.468;9.124;2022-08-03T04:24:51;4.88;;;2.17;;
45694;SDS011;31408;45.468;9.124;2022-08-03T04:27:28;5.50;;;1.92;;
45694;SDS011;31408;45.468;9.124;2022-08-03T04:29:57;8.65;;;2.42;;
45694;SDS011;31408;45.468;9.124;2022-08-03T04:32:24;8.85;;;2.90;;
45694;SDS011;31408;45.468;9.124;2022-08-03T04:34:52;4.50;;;2.50;;
45694;SDS011;31408;45.468;9.124;2022-08-03T04:37:22;3.50;;;2.22;;
45694;SDS011;31408;45.468;9.124;2022-08-03T04:39:51;3.70;;;2.50;;
45694;SDS011;31408;45.468;9.124;2022-08-03T04:42:20;3.90;;;1.90;;
45694;SDS011;31408;45.468;9.124;2022-08-03T04:44:46;6.32;;;2.60;;
45694;SDS011;31408;45.468;9.124;2022-08-03T04:47:12;8.00;;;3.05;;
45694;SDS011;31408;45.468;9.124;2022-08-03T04:49:38;3.40;;;2.45;;
45694;SDS011;31408;45.468;9.124;2022-08-03T04:52:04;4.35;;;2.40;;
45694;SDS011;31408;45.468;9.124;2022-08-03T04:54:37;4.80;;;2.78;;
45694;SDS011;31408;45.468;9.124;2022-08-03T04:57:04;2.95;;;2.30;;
45694;SDS011;31408;45.468;9.124;2022-08-03T04:59:29;4.47;;;2.40;;
45694;SDS011;31408;45.468;9.124;2022-08-03T05:01:55;5.07;;;2.08;;
45694;SDS011;31408;45.468;9.124;2022-08-03T05:04:20;4.82;;;2.40;;
45694;SDS011;31408;45.468;9.124;2022-08-03T05:06:47;7.50;;;2.58;;
45694;SDS011;31408;45.468;9.124;2022-08-03T05:09:12;4.07;;;1.80;;
45694;SDS011;31408;45.468;9.124;2022-08-03T05:11:42;9.73;;;2.80;;
45694;SDS011;31408;45.468;9.124;2022-08-03T05:14:08;7.72;;;2.30;;
45694;SDS011;31408;45.468;9.124;2022-08-03T05:16:34;7.07;;;2.45;;
45694;SDS011;31408;45.468;9.124;2022-08-03T05:18:59;2.85;;;2.20;;
45694;SDS011;31408;45.468;9.124;2022-08-03T05:21:25;8.40;;;3.35;;
45694;SDS011;31408;45.468;9.124;2022-08-03T05:23:50;4.80;;;1.83;;
45694;SDS011;31408;45.468;9.124;2022-08-03T05:26:16;4.03;;;2.08;;
45694;SDS011;31408;45.468;9.124;2022-08-03T05:28:41;8.45;;;3.00;;
45694;SDS011;31408;45.468;9.124;2022-08-03T05:31:07;4.63;;;2.50;;
45694;SDS011;31408;45.468;9.124;2022-08-03T05:33:32;7.25;;;2.50;;
45694;SDS011;31408;45.468;9.124;2022-08-03T05:35:57;6.80;;;2.65;;
45694;SDS011;31408;45.468;9.124;2022-08-03T05:38:24;3.63;;;1.88;;
45694;SDS011;31408;45.468;9.124;2022-08-03T05:40:49;9.13;;;3.40;;
45694;SDS011;31408;45.468;9.124;2022-08-03T05:43:15;11.43;;;2.50;;
45694;SDS011;31408;45.468;9.124;2022-08-03T05:45:40;3.80;;;2.38;;
45694;SDS011;31408;45.468;9.124;2022-08-03T05:48:06;3.30;;;1.65;;
45694;SDS011;31408;45.468;9.124;2022-08-03T05:50:37;4.55;;;1.70;;
45694;SDS011;31408;45.468;9.124;2022-08-03T05:53:02;11.13;;;2.25;;
45694;SDS011;31408;45.468;9.124;2022-08-03T05:55:27;3.58;;;1.83;;
45694;SDS011;31408;45.468;9.124;2022-08-03T05:57:53;4.50;;;1.90;;
45694;SDS011;31408;45.468;9.124;2022-08-03T06:00:19;3.50;;;1.88;;
45694;SDS011;31408;45.468;9.124;2022-08-03T06:02:44;4.75;;;1.83;;
45694;SDS011;31408;45.468;9.124;2022-08-03T06:05:10;3.30;;;1.45;;
45694;SDS011;31408;45.468;9.124;2022-08-03T06:07:35;4.55;;;1.63;;
45694;SDS011;31408;45.468;9.124;2022-08-03T06:10:01;4.55;;;1.35;;
45694;SDS011;31408;45.468;9.124;2022-08-03T06:12:27;3.03;;;1.40;;
45694;SDS011;31408;45.468;9.124;2022-08-03T06:14:53;3.50;;;1.73;;
45694;SDS011;31408;45.468;9.124;2022-08-03T06:17:18;4.15;;;1.27;;
45694;SDS011;31408;45.468;9.124;2022-08-03T06:19:44;2.92;;;2.28;;
45694;SDS011;31408;45.468;9.124;2022-08-03T06:22:09;4.53;;;1.80;;
45694;SDS011;31408;45.468;9.124;2022-08-03T06:24:35;5.18;;;1.83;;
45694;SDS011;31408;45.468;9.124;2022-08-03T06:27:00;2.45;;;1.60;;
45694;SDS011;31408;45.468;9.124;2022-08-03T06:29:26;4.18;;;2.08;;
45694;SDS011;31408;45.468;9.124;2022-08-03T06:31:51;4.55;;;1.77;;
45694;SDS011;31408;45.468;9.124;2022-08-03T06:34:17;7.22;;;1.90;;
45694;SDS011;31408;45.468;9.124;2022-08-03T06:36:42;3.55;;;1.20;;
45694;SDS011;31408;45.468;9.124;2022-08-03T06:39:08;1.65;;;1.55;;
45694;SDS011;31408;45.468;9.124;2022-08-03T06:41:33;1.08;;;0.98;;
45694;SDS011;31408;45.468;9.124;2022-08-03T06:43:59;3.42;;;1.27;;
45694;SDS011;31408;45.468;9.124;2022-08-03T06:46:24;2.97;;;1.45;;
45694;SDS011;31408;45.468;9.124;2022-08-03T06:48:50;2.53;;;1.58;;
45694;SDS011;31408;45.468;9.124;2022-08-03T06:51:16;5.03;;;1.40;;
45694;SDS011;31408;45.468;9.124;2022-08-03T06:53:41;2.83;;;1.50;;
45694;SDS011;31408;45.468;9.124;2022-08-03T06:56:07;5.63;;;1.65;;
45694;SDS011;31408;45.468;9.124;2022-08-03T06:58:33;8.40;;;2.05;;
45694;SDS011;31408;45.468;9.124;2022-08-03T07:00:59;3.00;;;1.35;;
45694;SDS011;31408;45.468;9.124;2022-08-03T07:03:24;7.65;;;1.42;;
45694;SDS011;31408;45.468;9.124;2022-08-03T07:05:50;3.53;;;1.38;;
45694;SDS011;31408;45.468;9.124;2022-08-03T07:08:16;2.97;;;1.73;;
45694;SDS011;31408;45.468;9.124;2022-08-03T07:10:41;3.92;;;2.17;;
45694;SDS011;31408;45.468;9.124;2022-08-03T07:13:07;5.32;;;1.50;;
45694;SDS011;31408;45.468;9.124;2022-08-03T07:15:33;4.25;;;1.40;;
45694;SDS011;31408;45.468;9.124;2022-08-03T07:17:59;5.93;;;1.70;;
45694;SDS011;31408;45.468;9.124;2022-08-03T07:20:24;3.03;;;1.25;;
45694;SDS011;31408;45.468;9.124;2022-08-03T07:22:50;6.95;;;1.73;;
45694;SDS011;31408;45.468;9.124;2022-08-03T07:25:15;4.47;;;1.63;;
45694;SDS011;31408;45.468;9.124;2022-08-03T07:27:44;2.60;;;1.80;;
45694;SDS011;31408;45.468;9.124;2022-08-03T07:30:10;4.53;;;1.65;;
45694;SDS011;31408;45.468;9.124;2022-08-03T07:32:37;5.97;;;2.00;;
45694;SDS011;31408;45.468;9.124;2022-08-03T07:35:03;6.88;;;2.08;;
45694;SDS011;31408;45.468;9.124;2022-08-03T07:37:30;1.92;;;1.23;;
45694;SDS011;31408;45.468;9.124;2022-08-03T07:39:56;1.40;;;1.20;;
45694;SDS011;31408;45.468;9.124;2022-08-03T07:42:22;2.17;;;1.45;;
45694;SDS011;31408;45.468;9.124;2022-08-03T07:44:48;2.53;;;1.80;;
45694;SDS011;31408;45.468;9.124;2022-08-03T07:47:23;5.57;;;1.85;;
45694;SDS011;31408;45.468;9.124;2022-08-03T07:49:50;5.10;;;1.63;;
45694;SDS011;31408;45.468;9.124;2022-08-03T07:52:16;1.85;;;1.15;;
45694;SDS011;31408;45.468;9.124;2022-08-03T07:55:01;2.58;;;0.98;;
45694;SDS011;31408;45.468;9.124;2022-08-03T07:57:27;2.70;;;0.98;;
45694;SDS011;31408;45.468;9.124;2022-08-03T07:59:52;2.47;;;0.93;;
45694;SDS011;31408;45.468;9.124;2022-08-03T08:02:18;2.90;;;1.15;;
45694;SDS011;31408;45.468;9.124;2022-08-03T08:04:43;3.38;;;1.23;;
45694;SDS011;31408;45.468;9.124;2022-08-03T08:07:09;1.80;;;1.15;;
45694;SDS011;31408;45.468;9.124;2022-08-03T08:09:34;4.03;;;1.58;;
45694;SDS011;31408;45.468;9.124;2022-08-03T08:12:00;5.32;;;1.63;;
45694;SDS011;31408;45.468;9.124;2022-08-03T08:14:25;2.05;;;1.30;;
45694;SDS011;31408;45.468;9.124;2022-08-03T08:16:51;2.47;;;1.20;;
45694;SDS011;31408;45.468;9.124;2022-08-03T08:19:16;2.15;;;1.15;;
45694;SDS011;31408;45.468;9.124;2022-08-03T08:21:42;2.60;;;1.23;;
45694;SDS011;31408;45.468;9.124;2022-08-03T08:24:08;3.08;;;1.38;;
45694;SDS011;31408;45.468;9.124;2022-08-03T08:26:34;1.33;;;1.23;;
45694;SDS011;31408;45.468;9.124;2022-08-03T08:29:00;6.10;;;1.35;;
45694;SDS011;31408;45.468;9.124;2022-08-03T08:31:25;2.17;;;1.00;;
45694;SDS011;31408;45.468;9.124;2022-08-03T08:33:51;4.10;;;1.05;;
45694;SDS011;31408;45.468;9.124;2022-08-03T08:36:16;5.20;;;1.20;;
45694;SDS011;31408;45.468;9.124;2022-08-03T08:38:42;2.10;;;1.45;;
45694;SDS011;31408;45.468;9.124;2022-08-03T08:41:12;2.13;;;1.30;;
45694;SDS011;31408;45.468;9.124;2022-08-03T08:43:38;3.15;;;1.58;;
45694;SDS011;31408;45.468;9.124;2022-08-03T08:46:05;1.48;;;1.15;;
45694;SDS011;31408;45.468;9.124;2022-08-03T08:48:35;3.60;;;1.08;;
45694;SDS011;31408;45.468;9.124;2022-08-03T08:51:04;3.42;;;1.20;;
45694;SDS011;31408;45.468;9.124;2022-08-03T08:53:30;2.45;;;1.00;;
45694;SDS011;31408;45.468;9.124;2022-08-03T08:56:00;5.13;;;1.10;;
45694;SDS011;31408;45.468;9.124;2022-08-03T08:58:32;5.82;;;1.67;;
45694;SDS011;31408;45.468;9.124;2022-08-03T09:01:00;4.22;;;1.08;;
45694;SDS011;31408;45.468;9.124;2022-08-03T09:03:26;5.70;;;1.08;;
45694;SDS011;31408;45.468;9.124;2022-08-03T09:05:51;5.05;;;1.10;;
45694;SDS011;31408;45.468;9.124;2022-08-03T09:08:17;10.95;;;1.45;;
45694;SDS011;31408;45.468;9.124;2022-08-03T09:10:43;4.95;;;1.20;;
45694;SDS011;31408;45.468;9.124;2022-08-03T09:13:08;2.83;;;1.08;;
45694;SDS011;31408;45.468;9.124;2022-08-03T09:15:34;2.35;;;0.90;;
45694;SDS011;31408;45.468;9.124;2022-08-03T09:18:01;1.40;;;0.95;;
45694;SDS011;31408;45.468;9.124;2022-08-03T09:20:29;2.88;;;1.27;;
45694;SDS011;31408;45.468;9.124;2022-08-03T09:22:57;1.58;;;0.95;;
45694;SDS011;31408;45.468;9.124;2022-08-03T09:25:33;1.38;;;0.77;;
45694;SDS011;31408;45.468;9.124;2022-08-03T09:28:05;2.22;;;1.10;;
45694;SDS011;31408;45.468;9.124;2022-08-03T09:30:30;4.93;;;1.13;;
45694;SDS011;31408;45.468;9.124;2022-08-03T09:33:00;4.95;;;1.00;;
45694;SDS011;31408;45.468;9.124;2022-08-03T09:35:29;6.78;;;1.17;;
45694;SDS011;31408;45.468;9.124;2022-08-03T09:40:56;0.65;;;0.60;;
45694;SDS011;31408;45.468;9.124;2022-08-03T09:43:21;0.85;;;0.70;;
45694;SDS011;31408;45.468;9.124;2022-08-03T09:45:49;3.13;;;1.40;;
45694;SDS011;31408;45.468;9.124;2022-08-03T09:48:23;4.07;;;1.00;;
45694;SDS011;31408;45.468;9.124;2022-08-03T09:50:51;1.35;;;0.90;;
45694;SDS011;31408;45.468;9.124;2022-08-03T09:53:18;2.80;;;0.80;;
45694;SDS011;31408;45.468;9.124;2022-08-03T09:58:22;1.45;;;0.90;;
45694;SDS011;31408;45.468;9.124;2022-08-03T10:01:03;0.80;;;0.80;;
45694;SDS011;31408;45.468;9.124;2022-08-03T10:03:33;1.13;;;0.82;;
45694;SDS011;31408;45.468;9.124;2022-08-03T10:06:13;2.45;;;1.10;;
45694;SDS011;31408;45.468;9.124;2022-08-03T10:08:46;0.95;;;0.85;;
45694;SDS011;31408;45.468;9.124;2022-08-03T10:11:29;2.35;;;0.80;;
45694;SDS011;31408;45.468;9.124;2022-08-03T10:13:56;2.78;;;0.95;;
45694;SDS011;31408;45.468;9.124;2022-08-03T10:16:22;1.65;;;1.00;;
45694;SDS011;31408;45.468;9.124;2022-08-03T10:18:47;1.55;;;1.05;;
45694;SDS011;31408;45.468;9.124;2022-08-03T10:21:14;1.40;;;1.10;;
45694;SDS011;31408;45.468;9.124;2022-08-03T10:23:41;3.58;;;0.98;;
45694;SDS011;31408;45.468;9.124;2022-08-03T10:26:07;4.00;;;1.00;;
45694;SDS011;31408;45.468;9.124;2022-08-03T10:28:35;0.65;;;0.57;;
45694;SDS011;31408;45.468;9.124;2022-08-03T10:31:02;1.73;;;0.95;;
45694;SDS011;31408;45.468;9.124;2022-08-03T10:33:33;2.42;;;1.08;;
45694;SDS011;31408;45.468;9.124;2022-08-03T10:36:02;2.50;;;1.05;;
45694;SDS011;31408;45.468;9.124;2022-08-03T10:38:41;1.52;;;0.88;;
45694;SDS011;31408;45.468;9.124;2022-08-03T10:41:10;1.42;;;0.70;;
45694;SDS011;31408;45.468;9.124;2022-08-03T10:43:40;1.67;;;1.05;;
45694;SDS011;31408;45.468;9.124;2022-08-03T10:46:10;2.25;;;1.10;;
45694;SDS011;31408;45.468;9.124;2022-08-03T10:48:35;1.05;;;0.82;;
45694;SDS011;31408;45.468;9.124;2022-08-03T10:51:01;1.27;;;1.00;;
45694;SDS011;31408;45.468;9.124;2022-08-03T10:53:34;5.03;;;1.10;;
45694;SDS011;31408;45.468;9.124;2022-08-03T10:56:00;2.35;;;1.10;;
45694;SDS011;31408;45.468;9.124;2022-08-03T10:58:51;3.35;;;1.27;;
45694;SDS011;31408;45.468;9.124;2022-08-03T11:01:18;1.85;;;1.10;;
45694;SDS011;31408;45.468;9.124;2022-08-03T11:06:25;3.80;;;1.35;;
45694;SDS011;31408;45.468;9.124;2022-08-03T11:11:46;1.70;;;1.02;;
45694;SDS011;31408;45.468;9.124;2022-08-03T11:14:21;1.10;;;1.00;;
45694;SDS011;31408;45.468;9.124;2022-08-03T11:17:06;2.08;;;1.23;;
45694;SDS011;31408;45.468;9.124;2022-08-03T11:19:51;3.10;;;1.13;;
45694;SDS011;31408;45.468;9.124;2022-08-03T11:22:18;1.50;;;1.35;;
45694;SDS011;31408;45.468;9.124;2022-08-03T11:27:28;2.40;;;1.00;;
45694;SDS011;31408;45.468;9.124;2022-08-03T11:35:22;2.85;;;0.95;;
45694;SDS011;31408;45.468;9.124;2022-08-03T11:40:34;2.42;;;1.30;;
45694;SDS011;31408;45.468;9.124;2022-08-03T11:42:59;1.83;;;1.20;;
45694;SDS011;31408;45.468;9.124;2022-08-03T11:45:25;7.88;;;1.60;;
45694;SDS011;31408;45.468;9.124;2022-08-03T11:47:54;2.55;;;1.27;;
45694;SDS011;31408;45.468;9.124;2022-08-03T11:50:20;2.17;;;1.30;;
45694;SDS011;31408;45.468;9.124;2022-08-03T11:52:46;2.15;;;0.88;;
45694;SDS011;31408;45.468;9.124;2022-08-03T11:55:15;3.20;;;1.20;;
45694;SDS011;31408;45.468;9.124;2022-08-03T11:57:44;1.20;;;1.10;;
45694;SDS011;31408;45.468;9.124;2022-08-03T12:02:56;2.03;;;1.38;;
45694;SDS011;31408;45.468;9.124;2022-08-03T12:07:59;1.42;;;1.30;;
45694;SDS011;31408;45.468;9.124;2022-08-03T12:10:24;3.85;;;2.30;;
45694;SDS011;31408;45.468;9.124;2022-08-03T12:12:54;1.98;;;1.25;;
45694;SDS011;31408;45.468;9.124;2022-08-03T12:15:26;1.30;;;1.20;;
45694;SDS011;31408;45.468;9.124;2022-08-03T12:17:54;4.40;;;1.20;;
45694;SDS011;31408;45.468;9.124;2022-08-03T12:20:21;3.35;;;1.30;;
45694;SDS011;31408;45.468;9.124;2022-08-03T12:22:48;3.40;;;1.30;;
45694;SDS011;31408;45.468;9.124;2022-08-03T12:25:23;1.50;;;1.13;;
45694;SDS011;31408;45.468;9.124;2022-08-03T12:27:50;2.60;;;1.13;;
45694;SDS011;31408;45.468;9.124;2022-08-03T12:30:17;2.38;;;1.23;;
45694;SDS011;31408;45.468;9.124;2022-08-03T12:32:43;1.00;;;1.00;;
45694;SDS011;31408;45.468;9.124;2022-08-03T12:35:09;1.67;;;1.20;;
45694;SDS011;31408;45.468;9.124;2022-08-03T12:37:34;1.15;;;1.05;;
45694;SDS011;31408;45.468;9.124;2022-08-03T12:40:00;1.25;;;1.00;;
45694;SDS011;31408;45.468;9.124;2022-08-03T12:42:30;1.90;;;0.95;;
45694;SDS011;31408;45.468;9.124;2022-08-03T12:44:56;1.52;;;1.20;;
45694;SDS011;31408;45.468;9.124;2022-08-03T12:47:21;3.95;;;1.67;;
45694;SDS011;31408;45.468;9.124;2022-08-03T12:49:48;1.27;;;1.20;;
45694;SDS011;31408;45.468;9.124;2022-08-03T12:52:15;3.08;;;1.23;;
45694;SDS011;31408;45.468;9.124;2022-08-03T12:54:41;1.33;;;1.20;;
45694;SDS011;31408;45.468;9.124;2022-08-03T12:57:08;2.92;;;1.23;;
45694;SDS011;31408;45.468;9.124;2022-08-03T12:59:35;2.72;;;2.05;;
45694;SDS011;31408;45.468;9.124;2022-08-03T13:02:43;3.50;;;2.13;;
45694;SDS011;31408;45.468;9.124;2022-08-03T13:05:08;7.43;;;3.63;;
45694;SDS011;31408;45.468;9.124;2022-08-03T13:07:43;1.35;;;1.15;;
45694;SDS011;31408;45.468;9.124;2022-08-03T13:10:10;2.22;;;1.13;;
45694;SDS011;31408;45.468;9.124;2022-08-03T13:12:46;4.25;;;1.65;;
45694;SDS011;31408;45.468;9.124;2022-08-03T13:15:12;2.15;;;1.27;;
45694;SDS011;31408;45.468;9.124;2022-08-03T13:17:38;3.55;;;1.30;;
45694;SDS011;31408;45.468;9.124;2022-08-03T13:20:04;2.20;;;1.73;;
45694;SDS011;31408;45.468;9.124;2022-08-03T13:22:30;1.88;;;1.35;;
45694;SDS011;31408;45.468;9.124;2022-08-03T13:24:57;5.07;;;2.30;;
45694;SDS011;31408;45.468;9.124;2022-08-03T13:27:25;2.10;;;1.38;;
45694;SDS011;31408;45.468;9.124;2022-08-03T13:29:51;2.25;;;1.38;;
45694;SDS011;31408;45.468;9.124;2022-08-03T13:32:17;3.35;;;1.00;;
45694;SDS011;31408;45.468;9.124;2022-08-03T13:34:43;3.28;;;1.48;;
45694;SDS011;31408;45.468;9.124;2022-08-03T13:37:08;1.75;;;1.25;;
45694;SDS011;31408;45.468;9.124;2022-08-03T13:39:36;1.85;;;1.33;;
45694;SDS011;31408;45.468;9.124;2022-08-03T13:42:02;1.70;;;1.38;;
45694;SDS011;31408;45.468;9.124;2022-08-03T13:44:29;1.98;;;1.17;;
45694;SDS011;31408;45.468;9.124;2022-08-03T13:46:55;2.80;;;1.20;;
45694;SDS011;31408;45.468;9.124;2022-08-03T13:49:21;1.90;;;1.15;;
45694;SDS011;31408;45.468;9.124;2022-08-03T13:51:46;4.32;;;1.13;;
45694;SDS011;31408;45.468;9.124;2022-08-03T13:54:12;5.85;;;2.95;;
45694;SDS011;31408;45.468;9.124;2022-08-03T13:56:37;4.82;;;1.65;;
45694;SDS011;31408;45.468;9.124;2022-08-03T13:59:03;4.20;;;1.45;;
45694;SDS011;31408;45.468;9.124;2022-08-03T14:01:28;3.58;;;2.88;;
45694;SDS011;31408;45.468;9.124;2022-08-03T14:03:53;3.40;;;1.98;;
45694;SDS011;31408;45.468;9.124;2022-08-03T14:06:21;5.45;;;1.98;;
45694;SDS011;31408;45.468;9.124;2022-08-03T14:08:47;1.33;;;1.17;;
45694;SDS011;31408;45.468;9.124;2022-08-03T14:11:12;3.72;;;1.67;;
45694;SDS011;31408;45.468;9.124;2022-08-03T14:13:38;2.83;;;2.13;;
45694;SDS011;31408;45.468;9.124;2022-08-03T14:16:04;2.25;;;1.48;;
45694;SDS011;31408;45.468;9.124;2022-08-03T14:18:29;1.35;;;1.13;;
45694;SDS011;31408;45.468;9.124;2022-08-03T14:20:56;4.93;;;1.60;;
45694;SDS011;31408;45.468;9.124;2022-08-03T14:23:22;1.83;;;1.15;;
45694;SDS011;31408;45.468;9.124;2022-08-03T14:25:48;1.95;;;1.48;;
45694;SDS011;31408;45.468;9.124;2022-08-03T14:28:13;4.30;;;1.58;;
45694;SDS011;31408;45.468;9.124;2022-08-03T14:30:38;2.63;;;1.17;;
45694;SDS011;31408;45.468;9.124;2022-08-03T14:33:04;3.20;;;1.35;;
45694;SDS011;31408;45.468;9.124;2022-08-03T14:35:29;1.85;;;1.27;;
45694;SDS011;31408;45.468;9.124;2022-08-03T14:37:55;4.03;;;1.50;;
45694;SDS011;31408;45.468;9.124;2022-08-03T14:40:20;2.15;;;1.15;;
45694;SDS011;31408;45.468;9.124;2022-08-03T14:42:46;3.20;;;1.60;;
45694;SDS011;31408;45.468;9.124;2022-08-03T14:45:11;1.20;;;1.15;;
45694;SDS011;31408;45.468;9.124;2022-08-03T14:47:37;1.30;;;1.20;;
45694;SDS011;31408;45.468;9.124;2022-08-03T14:50:04;3.53;;;1.20;;
45694;SDS011;31408;45.468;9.124;2022-08-03T14:52:30;3.58;;;1.60;;
45694;SDS011;31408;45.468;9.124;2022-08-03T14:54:56;5.40;;;1.20;;
45694;SDS011;31408;45.468;9.124;2022-08-03T14:57:22;1.25;;;1.15;;
45694;SDS011;31408;45.468;9.124;2022-08-03T14:59:47;4.75;;;1.35;;
45694;SDS011;31408;45.468;9.124;2022-08-03T15:02:13;4.43;;;1.67;;
45694;SDS011;31408;45.468;9.124;2022-08-03T15:04:38;3.05;;;1.60;;
45694;SDS011;31408;45.468;9.124;2022-08-03T15:07:04;2.97;;;1.30;;
45694;SDS011;31408;45.468;9.124;2022-08-03T15:09:29;3.40;;;1.63;;
45694;SDS011;31408;45.468;9.124;2022-08-03T15:11:55;2.17;;;1.65;;
45694;SDS011;31408;45.468;9.124;2022-08-03T15:14:20;1.40;;;1.30;;
45694;SDS011;31408;45.468;9.124;2022-08-03T15:16:46;3.30;;;1.60;;
45694;SDS011;31408;45.468;9.124;2022-08-03T15:19:11;2.70;;;1.33;;
45694;SDS011;31408;45.468;9.124;2022-08-03T15:21:37;1.05;;;0.95;;
45694;SDS011;31408;45.468;9.124;2022-08-03T15:24:03;1.10;;;1.05;;